createdAt,value
2023-01-08T00:09:10.714Z,3.1
2023-01-08T00:24:20.650Z,3.6
2023-01-08T00:39:30.270Z,3.6
2023-01-08T00:54:40.616Z,3.5
2023-01-08T01:09:50.553Z,3.9
2023-01-08T01:25:00.619Z,3.6
2023-01-08T01:40:10.716Z,2.6
2023-01-08T01:55:20.978Z,3.6
2023-01-08T02:10:31.000Z,3.4
2023-01-08T02:25:41.138Z,3.5
2023-01-08T02:40:51.478Z,3.5
2023-01-08T02:56:01.351Z,3.7
2023-01-08T03:11:11.564Z,3.6
2023-01-08T03:26:21.932Z,3.7
2023-01-08T03:41:32.032Z,3.5
2023-01-08T03:56:42.259Z,4.2
2023-01-08T04:11:53.223Z,4.2
2023-01-08T04:27:03.274Z,4.1
2023-01-08T04:42:13.729Z,3.5
2023-01-08T04:57:24.658Z,3.6
2023-01-08T05:12:34.965Z,3.7
2023-01-08T05:27:48.177Z,3.5
2023-01-08T05:42:58.519Z,3.8
2023-01-08T05:58:09.568Z,3.6
2023-01-08T06:13:20.127Z,3.5
2023-01-08T06:28:31.484Z,4
2023-01-08T06:43:42.037Z,3.6
2023-01-08T06:58:52.697Z,3.1
2023-01-08T07:14:06.211Z,3.8
2023-01-08T07:29:19.211Z,4
2023-01-08T07:44:29.554Z,3.6
2023-01-08T07:59:39.603Z,3.5
2023-01-08T08:14:49.639Z,3.5
2023-01-08T08:29:59.557Z,3.4
2023-01-08T08:45:10.021Z,3.5
2023-01-08T09:00:19.729Z,3.1
2023-01-08T09:15:29.789Z,2.9
2023-01-08T09:30:39.580Z,2.6
2023-01-08T09:45:49.930Z,2.8
2023-01-08T10:01:00.026Z,2.6
2023-01-08T10:16:10.468Z,2.1
2023-01-08T10:31:21.077Z,2.5
2023-01-08T10:46:31.210Z,2.2
2023-01-08T11:01:40.966Z,2.1
2023-01-08T11:16:50.973Z,2.1
2023-01-08T11:32:00.779Z,3.1
2023-01-08T11:47:10.848Z,1.7
2023-01-08T12:02:20.797Z,1.3
2023-01-08T12:17:30.735Z,1.7
2023-01-08T12:32:40.232Z,1.5
2023-01-08T12:47:49.637Z,1.9
2023-01-08T13:02:59.455Z,1.9
2023-01-08T13:18:09.619Z,1.6
2023-01-08T13:33:19.465Z,2.1
2023-01-08T13:48:29.180Z,1.9
2023-01-08T14:03:38.905Z,2
2023-01-08T14:18:48.531Z,2
2023-01-08T14:33:58.094Z,2.6
2023-01-08T14:49:10.797Z,1.6
2023-01-08T15:04:19.964Z,2
2023-01-08T15:19:29.285Z,1.8
2023-01-08T15:34:39.001Z,1.9
2023-01-08T15:49:48.549Z,3.1
2023-01-08T16:04:57.957Z,1.7
2023-01-08T16:20:07.270Z,2.1
2023-01-08T16:35:19.455Z,2.1
2023-01-08T16:50:29.292Z,2.9
2023-01-08T17:05:38.206Z,1.8
2023-01-08T17:20:47.413Z,1.4
2023-01-08T17:35:56.968Z,1.8
2023-01-08T17:51:09.783Z,2.1
2023-01-08T18:06:19.451Z,3
2023-01-08T18:21:29.111Z,2.7
2023-01-08T18:36:38.531Z,2.9
2023-01-08T18:51:48.151Z,7.1
2023-01-08T19:06:57.676Z,12.3
2023-01-08T19:22:06.965Z,7.8
2023-01-08T19:37:19.236Z,2.7
2023-01-08T19:52:28.580Z,2.9
2023-01-08T20:07:38.942Z,3.1
2023-01-08T20:22:48.372Z,2.7
2023-01-08T20:37:58.074Z,2.4
2023-01-08T20:53:07.677Z,2.6
2023-01-08T21:08:20.219Z,2.4
2023-01-08T21:23:30.793Z,2.1
2023-01-08T21:38:39.914Z,3.2
2023-01-08T21:53:49.301Z,2.6
2023-01-08T22:08:59.311Z,3
2023-01-08T22:24:09.036Z,2.8
2023-01-08T22:39:19.415Z,2
2023-01-08T22:54:28.594Z,2.1
2023-01-08T23:09:38.309Z,2.5
2023-01-08T23:24:48.061Z,2.3
2023-01-08T23:39:57.665Z,2.1
2023-01-08T23:55:07.278Z,2.1
